Time;durP1;ratioP1;P1;durP2;ratioP2;P2;SDS_P1;SDS_P2;PMS_P1;PMS_P2;Temp;Humidity;BMP_temperature;BMP_pressure;BME280_temperature;BME280_humidity;BME280_pressure;Samples;Min_cycle;Max_cycle;Signal;HPM_P1;HPM_P2
2022/08/04 00:01:50;;;;;;;28.75;12.98;;;20.40;99.90;;;;;;4991245;28;20133;-69
2022/08/04 00:04:33;;;;;;;27.95;13.18;;;20.40;99.90;;;;;;5006666;28;20046;-69
2022/08/04 00:07:23;;;;;;;26.80;12.70;;;20.40;99.90;;;;;;5010520;28;20046;-68
2022/08/04 00:10:00;;;;;;;25.73;12.13;;;20.40;99.90;;;;;;5012274;28;20076;-68
2022/08/04 00:12:30;;;;;;;29.98;11.52;;;20.40;99.90;;;;;;5009818;28;20050;-68
2022/08/04 00:14:59;;;;;;;21.52;11.73;;;20.40;99.90;;;;;;4988424;28;20057;-68
2022/08/04 00:17:30;;;;;;;31.42;12.85;;;20.30;99.90;;;;;;4999086;28;20045;-68
2022/08/04 00:20:00;;;;;;;29.30;12.93;;;20.30;99.90;;;;;;4999992;28;20109;-69
2022/08/04 00:22:28;;;;;;;23.75;12.30;;;20.20;99.90;;;;;;5006012;28;20046;-69
2022/08/04 00:25:03;;;;;;;26.30;12.57;;;20.20;99.90;;;;;;4990708;28;20056;-69
2022/08/04 00:27:30;;;;;;;25.73;13.07;;;20.20;99.90;;;;;;4994905;28;20050;-70
2022/08/04 00:29:57;;;;;;;23.60;12.45;;;20.20;99.90;;;;;;5003210;28;20080;-70
2022/08/04 00:32:25;;;;;;;34.28;13.75;;;20.20;99.90;;;;;;5007590;28;20049;-69
2022/08/04 00:34:53;;;;;;;33.75;13.07;;;20.20;99.90;;;;;;5010314;28;20457;-69
2022/08/04 00:37:23;;;;;;;28.63;13.02;;;20.10;99.90;;;;;;5021303;28;20451;-69
2022/08/04 00:39:52;;;;;;;24.65;13.05;;;20.10;99.90;;;;;;5010251;28;20539;-69
2022/08/04 00:42:40;;;;;;;26.23;13.90;;;20.10;99.90;;;;;;5011363;28;20054;-69
2022/08/04 00:45:33;;;;;;;28.08;13.93;;;20.00;99.90;;;;;;5009488;28;20058;-69
2022/08/04 00:48:26;;;;;;;30.67;13.57;;;20.00;99.90;;;;;;5021076;28;20124;-69
2022/08/04 00:51:19;;;;;;;25.38;12.75;;;20.00;99.90;;;;;;5006399;28;20046;-69
2022/08/04 00:54:00;;;;;;;33.40;14.50;;;20.00;99.90;;;;;;4975253;28;20062;-69
2022/08/04 00:56:37;;;;;;;27.30;13.27;;;20.00;99.90;;;;;;4995255;28;20042;-71
2022/08/04 00:59:13;;;;;;;29.42;14.35;;;20.00;99.90;;;;;;5011908;28;20042;-69
2022/08/04 01:02:22;;;;;;;36.95;14.50;;;20.00;99.90;;;;;;4993793;28;20034;-69
2022/08/04 01:05:01;;;;;;;23.52;12.38;;;20.00;99.90;;;;;;5019292;28;20635;-69
2022/08/04 01:07:31;;;;;;;26.35;13.82;;;19.90;99.90;;;;;;5012866;28;20092;-69
2022/08/04 01:10:38;;;;;;;30.17;14.07;;;19.90;99.90;;;;;;5010063;28;20042;-71
2022/08/04 01:13:22;;;;;;;25.13;12.48;;;19.90;99.90;;;;;;4960865;28;20057;-71
2022/08/04 01:16:21;;;;;;;33.53;14.43;;;19.90;99.90;;;;;;5011118;28;20064;-69
2022/08/04 01:19:13;;;;;;;31.38;13.25;;;19.90;99.90;;;;;;5003454;28;20512;-71
2022/08/04 01:22:01;;;;;;;31.35;13.52;;;19.90;99.90;;;;;;5009613;28;20060;-69
2022/08/04 01:25:06;;;;;;;28.85;13.48;;;19.90;99.90;;;;;;5010674;28;20084;-68
2022/08/04 01:28:03;;;;;;;33.17;14.68;;;19.90;99.90;;;;;;4973279;28;20480;-69
2022/08/04 01:30:32;;;;;;;31.33;14.32;;;19.90;99.90;;;;;;4974007;28;20058;-70
2022/08/04 01:33:12;;;;;;;24.85;12.40;;;19.80;99.90;;;;;;5002247;28;20054;-69
2022/08/04 01:35:47;;;;;;;28.83;13.02;;;19.80;99.90;;;;;;5010442;28;20140;-69
2022/08/04 01:38:32;;;;;;;29.58;12.80;;;19.70;99.90;;;;;;5008511;28;20084;-68
2022/08/04 01:41:11;;;;;;;30.45;13.60;;;19.70;99.90;;;;;;5011164;28;20049;-68
2022/08/04 01:43:43;;;;;;;29.65;13.13;;;19.70;99.90;;;;;;5009296;28;20116;-70
2022/08/04 01:46:14;;;;;;;31.67;13.40;;;19.70;99.90;;;;;;5024866;28;20052;-69
2022/08/04 01:48:45;;;;;;;28.17;13.63;;;19.70;99.90;;;;;;4994821;28;20510;-69
2022/08/04 01:51:11;;;;;;;29.77;14.43;;;19.70;99.90;;;;;;5011005;28;20484;-68
2022/08/04 01:53:42;;;;;;;32.22;13.27;;;19.60;99.90;;;;;;5009914;28;20464;-70
2022/08/04 01:56:10;;;;;;;23.45;12.40;;;19.60;99.90;;;;;;4993487;28;20485;-69
2022/08/04 01:58:38;;;;;;;28.58;12.98;;;19.60;99.90;;;;;;5010928;28;20046;-69
2022/08/04 02:01:09;;;;;;;27.13;13.68;;;19.50;99.90;;;;;;5010758;28;20485;-69
2022/08/04 02:03:40;;;;;;;27.17;13.48;;;19.60;99.90;;;;;;4993140;28;20512;-69
2022/08/04 02:06:30;;;;;;;25.42;13.82;;;20.00;99.90;;;;;;4993202;28;20130;-69
2022/08/04 02:09:21;;;;;;;26.48;13.10;;;19.40;99.90;;;;;;4964340;28;20093;-69
2022/08/04 02:12:08;;;;;;;27.95;13.35;;;19.40;99.90;;;;;;5010358;28;20052;-72
2022/08/04 02:14:48;;;;;;;31.50;14.15;;;19.40;99.90;;;;;;5010295;28;20127;-71
2022/08/04 02:17:29;;;;;;;28.83;14.02;;;19.40;99.90;;;;;;5005972;28;20397;-70
2022/08/04 02:20:06;;;;;;;31.15;13.48;;;19.40;99.90;;;;;;5039966;28;20151;-69
2022/08/04 02:22:37;;;;;;;30.00;13.00;;;19.40;99.90;;;;;;5010965;28;20095;-69
2022/08/04 02:25:06;;;;;;;27.20;12.43;;;19.40;99.90;;;;;;5009114;28;20077;-69
2022/08/04 02:28:00;;;;;;;29.52;13.35;;;19.40;99.90;;;;;;5021249;28;20128;-68
2022/08/04 02:30:40;;;;;;;24.77;12.18;;;19.40;99.90;;;;;;5010043;28;20053;-71
2022/08/04 02:33:10;;;;;;;24.42;12.38;;;19.40;99.90;;;;;;5023010;28;20041;-69
2022/08/04 02:35:39;;;;;;;26.25;13.30;;;19.40;99.90;;;;;;5021778;28;20085;-69
2022/08/04 02:38:17;;;;;;;20.90;11.35;;;19.40;99.90;;;;;;5014699;28;20056;-68
2022/08/04 02:40:45;;;;;;;20.75;12.15;;;19.40;99.90;;;;;;5046955;28;20119;-68
2022/08/04 02:43:14;;;;;;;20.45;11.45;;;19.20;99.90;;;;;;5014367;28;20053;-69
2022/08/04 02:45:42;;;;;;;16.73;8.38;;;19.00;99.90;;;;;;5013484;28;20119;-68
2022/08/04 02:48:10;;;;;;;15.35;8.18;;;19.00;99.90;;;;;;5014213;28;20470;-70
2022/08/04 02:50:38;;;;;;;11.60;7.45;;;19.00;99.90;;;;;;4997600;28;21346;-68
2022/08/04 02:53:04;;;;;;;14.85;9.00;;;18.90;99.90;;;;;;5013459;28;20125;-69
2022/08/04 02:55:31;;;;;;;19.90;10.65;;;18.90;99.90;;;;;;5022472;28;20400;-68
2022/08/04 02:58:00;;;;;;;19.15;11.18;;;18.90;99.90;;;;;;5014579;28;20042;-69
2022/08/04 03:00:27;;;;;;;23.23;12.18;;;18.90;99.90;;;;;;5014210;28;20058;-69
2022/08/04 03:03:15;;;;;;;21.42;12.13;;;18.80;99.90;;;;;;5014000;28;20085;-68
2022/08/04 03:05:53;;;;;;;16.90;10.25;;;18.80;99.90;;;;;;5015413;28;20058;-69
2022/08/04 03:08:28;;;;;;;11.90;8.90;;;18.70;99.90;;;;;;5044044;28;20038;-70
2022/08/04 03:11:11;;;;;;;19.05;10.15;;;18.70;99.90;;;;;;5013791;28;20094;-68
2022/08/04 03:14:25;;;;;;;11.65;8.82;;;18.70;99.90;;;;;;4997419;28;20077;-70
2022/08/04 03:16:53;;;;;;;13.98;9.13;;;18.60;99.90;;;;;;4990678;28;20101;-70
2022/08/04 03:20:04;;;;;;;17.65;10.07;;;18.60;99.90;;;;;;5013485;28;20050;-69
2022/08/04 03:22:54;;;;;;;8.53;6.87;;;18.50;99.90;;;;;;4967201;28;20068;-70
2022/08/04 03:25:24;;;;;;;7.93;7.03;;;18.50;99.90;;;;;;5013598;28;20324;-72
2022/08/04 03:28:14;;;;;;;7.80;6.00;;;18.50;99.90;;;;;;5043785;28;20133;-70
2022/08/04 03:30:52;;;;;;;11.75;7.32;;;18.40;99.90;;;;;;5014740;28;20538;-68
2022/08/04 03:33:36;;;;;;;9.57;6.57;;;18.40;99.90;;;;;;5013233;28;20049;-68
2022/08/04 03:36:20;;;;;;;9.70;6.90;;;18.40;99.90;;;;;;5012995;28;20125;-72
2022/08/04 03:39:14;;;;;;;10.73;5.00;;;18.40;99.90;;;;;;5014345;28;20058;-68
2022/08/04 03:42:21;;;;;;;8.60;5.78;;;18.40;99.90;;;;;;5012322;28;20543;-70
2022/08/04 03:45:29;;;;;;;8.00;3.65;;;18.30;99.90;;;;;;5004925;28;20389;-71
2022/08/04 03:48:08;;;;;;;7.28;4.53;;;18.30;99.90;;;;;;5018844;28;20057;-68
2022/08/04 03:54:22;;;;;;;4.72;3.92;;;18.30;99.90;;;;;;5040822;28;20547;-68
2022/08/04 03:57:14;;;;;;;33.40;6.00;;;18.30;99.90;;;;;;5012689;28;20400;-68
2022/08/04 04:00:03;;;;;;;9.77;5.82;;;18.30;99.90;;;;;;4988791;28;20082;-69
2022/08/04 04:02:57;;;;;;;19.58;9.90;;;18.30;99.90;;;;;;5041703;28;20069;-68
2022/08/04 04:05:36;;;;;;;21.30;11.85;;;18.40;99.90;;;;;;5012543;28;20052;-68
2022/08/04 04:08:27;;;;;;;12.23;9.55;;;18.40;99.90;;;;;;4995628;28;20100;-69
2022/08/04 04:11:28;;;;;;;10.40;6.95;;;18.40;99.90;;;;;;5041286;28;20403;-68
2022/08/04 04:14:35;;;;;;;19.73;10.17;;;18.40;99.90;;;;;;5012687;28;20038;-68
2022/08/04 04:17:16;;;;;;;11.23;7.28;;;18.40;99.90;;;;;;5011450;28;20631;-68
2022/08/04 04:20:05;;;;;;;9.90;4.95;;;18.40;99.90;;;;;;5016828;28;20038;-68
2022/08/04 04:22:55;;;;;;;9.32;6.20;;;18.40;99.90;;;;;;5022250;28;20046;-68
2022/08/04 04:25:45;;;;;;;12.57;8.57;;;18.40;99.90;;;;;;5012700;28;20132;-70
2022/08/04 04:28:42;;;;;;;14.35;8.82;;;18.40;99.90;;;;;;5012314;28;20145;-68
2022/08/04 04:31:21;;;;;;;18.67;9.82;;;18.50;99.90;;;;;;5021701;28;20045;-69
2022/08/04 04:34:04;;;;;;;17.80;11.27;;;18.60;99.90;;;;;;5014513;28;20092;-68
2022/08/04 04:36:40;;;;;;;19.85;10.98;;;18.70;99.90;;;;;;5040123;28;20095;-68
2022/08/04 04:39:26;;;;;;;25.33;11.80;;;18.70;99.90;;;;;;5001610;28;20133;-69
2022/08/04 04:42:08;;;;;;;21.08;11.43;;;18.80;99.90;;;;;;5032470;28;20049;-68
2022/08/04 04:45:05;;;;;;;19.80;11.80;;;18.90;99.90;;;;;;5011587;28;20058;-68
2022/08/04 04:47:50;;;;;;;15.57;9.98;;;19.00;99.90;;;;;;5020226;28;20127;-68
2022/08/04 04:50:41;;;;;;;14.88;10.02;;;19.00;99.90;;;;;;5011953;28;20145;-70
2022/08/04 04:53:27;;;;;;;12.63;8.82;;;19.00;99.90;;;;;;5012199;28;20054;-68
2022/08/04 04:56:11;;;;;;;16.48;9.35;;;19.00;99.90;;;;;;5010921;28;20042;-68
2022/08/04 04:58:37;;;;;;;19.95;10.95;;;19.10;99.90;;;;;;5000621;28;20488;-69
2022/08/04 05:01:25;;;;;;;19.83;11.70;;;19.10;99.90;;;;;;4995400;28;20543;-68
2022/08/04 05:04:24;;;;;;;21.33;12.13;;;19.20;99.90;;;;;;5011600;28;20060;-70
2022/08/04 05:07:06;;;;;;;28.55;12.70;;;19.30;99.90;;;;;;5014417;28;20049;-74
2022/08/04 05:09:59;;;;;;;22.00;12.48;;;19.40;99.90;;;;;;5014780;28;20046;-69
2022/08/04 05:13:03;;;;;;;25.52;14.25;;;19.60;99.90;;;;;;5007014;28;20050;-69
2022/08/04 05:15:36;;;;;;;26.05;14.30;;;19.70;99.90;;;;;;5009555;28;20057;-69
2022/08/04 05:18:05;;;;;;;24.58;14.30;;;19.90;99.90;;;;;;5001991;28;20487;-69
2022/08/04 05:20:39;;;;;;;28.67;14.50;;;20.00;99.90;;;;;;4996426;28;20056;-71
2022/08/04 05:23:18;;;;;;;30.77;14.20;;;20.10;99.90;;;;;;4995201;28;20100;-71
2022/08/04 05:25:51;;;;;;;28.27;15.18;;;20.30;99.90;;;;;;4985753;28;20050;-69
2022/08/04 05:28:35;;;;;;;22.25;15.07;;;20.30;99.90;;;;;;5012170;28;20499;-70
2022/08/04 05:31:05;;;;;;;25.92;14.07;;;20.50;99.90;;;;;;5019439;28;20046;-69
2022/08/04 05:34:02;;;;;;;30.17;14.52;;;20.60;99.90;;;;;;4991754;28;20096;-69
2022/08/04 05:36:34;;;;;;;27.67;14.48;;;20.80;99.90;;;;;;5007189;28;20061;-68
2022/08/04 05:39:01;;;;;;;25.75;13.73;;;20.90;99.90;;;;;;5010671;28;20046;-70
2022/08/04 05:41:28;;;;;;;24.75;13.57;;;21.10;99.90;;;;;;5021642;28;20076;-68
2022/08/04 05:43:56;;;;;;;23.25;13.63;;;21.20;99.90;;;;;;5016805;28;20133;-71
2022/08/04 05:46:23;;;;;;;20.08;11.38;;;21.30;99.90;;;;;;5010660;28;20065;-73
2022/08/04 05:48:51;;;;;;;22.73;12.05;;;21.40;99.90;;;;;;4993136;28;20377;-76
2022/08/04 05:51:17;;;;;;;22.30;12.65;;;21.40;99.90;;;;;;5034573;28;20802;-74
2022/08/04 05:53:46;;;;;;;25.58;12.27;;;21.40;99.90;;;;;;5003745;28;20504;-73
2022/08/04 05:56:14;;;;;;;23.10;12.25;;;21.40;99.90;;;;;;4981297;28;20054;-73
2022/08/04 05:58:41;;;;;;;21.80;12.65;;;21.50;99.90;;;;;;5011123;28;20058;-72
2022/08/04 06:01:09;;;;;;;21.63;11.43;;;21.50;99.90;;;;;;4995547;28;20096;-73
2022/08/04 06:03:37;;;;;;;21.80;11.30;;;21.60;99.90;;;;;;5007856;28;20050;-73
2022/08/04 06:06:04;;;;;;;22.67;12.63;;;21.70;99.90;;;;;;5010409;28;20077;-73
2022/08/04 06:08:30;;;;;;;20.33;12.23;;;21.80;99.90;;;;;;5010636;28;20041;-73
2022/08/04 06:11:00;;;;;;;22.67;11.50;;;21.90;99.90;;;;;;4989980;28;20054;-72
2022/08/04 06:13:36;;;;;;;23.30;12.38;;;22.00;99.90;;;;;;5010007;28;20074;-75
2022/08/04 06:16:05;;;;;;;24.33;12.43;;;22.00;99.90;;;;;;5008842;28;20046;-73
2022/08/04 06:18:33;;;;;;;20.75;12.23;;;22.10;99.90;;;;;;5012518;28;20053;-72
2022/08/04 06:21:03;;;;;;;19.65;12.15;;;22.10;99.90;;;;;;5010944;28;20078;-73
2022/08/04 06:23:30;;;;;;;22.10;12.00;;;22.10;99.90;;;;;;5009795;28;20061;-73
2022/08/04 06:25:59;;;;;;;22.25;12.30;;;22.20;99.90;;;;;;5010011;28;20169;-73
2022/08/04 06:28:28;;;;;;;23.75;12.82;;;22.20;99.90;;;;;;4996455;28;20499;-75
2022/08/04 06:30:54;;;;;;;26.80;11.63;;;22.40;99.90;;;;;;5012234;28;20407;-73
2022/08/04 06:33:32;;;;;;;25.15;11.05;;;22.60;99.90;;;;;;5014263;28;20503;-77
2022/08/04 06:36:00;;;;;;;19.67;9.90;;;22.70;99.90;;;;;;5009949;28;20449;-73
2022/08/04 06:38:29;;;;;;;21.25;9.57;;;22.80;99.90;;;;;;5019131;28;20081;-75
2022/08/04 06:41:02;;;;;;;22.38;10.30;;;23.00;99.90;;;;;;5001919;28;20084;-73
2022/08/04 06:43:30;;;;;;;17.35;10.60;;;23.10;99.90;;;;;;5015114;28;20069;-72
2022/08/04 06:45:58;;;;;;;21.58;10.80;;;23.30;99.90;;;;;;5012012;28;20116;-75
2022/08/04 06:48:25;;;;;;;22.00;9.68;;;23.50;99.90;;;;;;5033470;28;20100;-75
2022/08/04 06:50:52;;;;;;;21.30;9.82;;;23.50;99.90;;;;;;5010429;28;20053;-69
2022/08/04 06:53:18;;;;;;;20.23;10.25;;;23.60;99.90;;;;;;5010636;28;20500;-69
2022/08/04 06:55:47;;;;;;;22.75;10.40;;;23.70;99.90;;;;;;4993505;28;20053;-68
2022/08/04 06:58:15;;;;;;;18.05;9.05;;;23.80;99.90;;;;;;5021282;28;20104;-69
2022/08/04 07:00:44;;;;;;;21.23;9.00;;;23.90;99.90;;;;;;5010488;28;20092;-68
2022/08/04 07:03:11;;;;;;;16.80;9.68;;;23.90;99.90;;;;;;5016626;28;20049;-70
2022/08/04 07:05:37;;;;;;;18.10;8.13;;;24.00;99.90;;;;;;5042641;28;20148;-68
2022/08/04 07:08:04;;;;;;;22.80;7.95;;;24.20;99.90;;;;;;5010118;28;20055;-68
2022/08/04 07:10:30;;;;;;;17.10;8.20;;;24.20;99.90;;;;;;5011763;28;20049;-69
2022/08/04 07:12:58;;;;;;;18.23;8.02;;;24.20;99.90;;;;;;5013868;28;20465;-68
2022/08/04 07:15:24;;;;;;;15.38;7.28;;;24.30;99.90;;;;;;5022618;28;20112;-69
2022/08/04 07:17:51;;;;;;;17.30;7.70;;;24.30;99.90;;;;;;4997619;28;20054;-71
2022/08/04 07:20:18;;;;;;;15.75;7.70;;;24.40;99.90;;;;;;5013915;28;20083;-72
2022/08/04 07:22:47;;;;;;;13.25;6.78;;;24.30;99.90;;;;;;5017236;28;20053;-69
2022/08/04 07:25:15;;;;;;;28.70;7.43;;;24.50;99.90;;;;;;5025996;28;20054;-69
2022/08/04 07:27:42;;;;;;;16.23;6.90;;;24.60;99.90;;;;;;4996890;28;20054;-68
2022/08/04 07:30:08;;;;;;;11.30;6.75;;;24.60;99.90;;;;;;4997272;28;20057;-69
2022/08/04 07:32:36;;;;;;;15.63;6.18;;;24.70;99.90;;;;;;5014907;28;20097;-68
2022/08/04 07:35:04;;;;;;;13.85;6.05;;;24.80;99.90;;;;;;5041149;28;20550;-68
2022/08/04 07:37:32;;;;;;;10.77;6.43;;;24.90;99.90;;;;;;5013525;28;20061;-69
2022/08/04 07:39:59;;;;;;;17.10;6.55;;;25.00;99.90;;;;;;5013333;28;20057;-68
2022/08/04 07:42:26;;;;;;;12.43;5.95;;;24.90;99.90;;;;;;5013492;28;20046;-68
2022/08/04 07:44:52;;;;;;;19.17;5.85;;;25.00;99.90;;;;;;5016014;28;20050;-68
2022/08/04 07:47:21;;;;;;;17.90;6.07;;;25.00;99.90;;;;;;4996603;28;20472;-72
2022/08/04 07:49:47;;;;;;;13.68;5.50;;;25.10;99.90;;;;;;5013468;28;20480;-68
2022/08/04 07:52:14;;;;;;;17.35;5.50;;;25.20;99.90;;;;;;5013337;28;20049;-68
2022/08/04 07:54:41;;;;;;;12.18;5.15;;;25.40;99.90;;;;;;5014743;28;20058;-68
2022/08/04 07:57:07;;;;;;;13.35;5.28;;;25.60;99.90;;;;;;5017046;28;20065;-69
2022/08/04 07:59:35;;;;;;;14.75;5.03;;;25.70;99.90;;;;;;5001301;28;20041;-69
2022/08/04 08:02:01;;;;;;;14.05;4.93;;;25.80;99.90;;;;;;5013115;28;20389;-69
2022/08/04 08:04:28;;;;;;;10.48;4.57;;;25.80;99.90;;;;;;5013711;28;20069;-70
2022/08/04 08:06:57;;;;;;;14.43;4.80;;;25.90;99.90;;;;;;5013911;28;20515;-72
2022/08/04 08:09:24;;;;;;;12.38;4.60;;;26.00;99.90;;;;;;4996665;28;20100;-68
2022/08/04 08:11:52;;;;;;;9.57;4.30;;;26.20;99.90;;;;;;4996703;28;20065;-69
2022/08/04 08:14:19;;;;;;;9.63;4.50;;;26.20;99.90;;;;;;5012073;28;20058;-68
2022/08/04 08:16:46;;;;;;;13.23;4.03;;;26.20;99.90;;;;;;5040370;28;20099;-68
2022/08/04 08:19:13;;;;;;;13.20;4.90;;;26.30;99.90;;;;;;5023105;28;20046;-69
2022/08/04 08:21:39;;;;;;;11.88;3.83;;;26.30;99.90;;;;;;5011711;28;20054;-69
2022/08/04 08:24:06;;;;;;;12.07;4.00;;;26.40;99.90;;;;;;4996423;28;20404;-69
2022/08/04 08:26:35;;;;;;;10.32;4.07;;;26.50;99.90;;;;;;5017226;28;20038;-69
2022/08/04 08:29:03;;;;;;;8.52;4.07;;;26.60;99.90;;;;;;4996228;28;20471;-69
2022/08/04 08:31:29;;;;;;;14.82;4.63;;;26.70;99.90;;;;;;5012497;28;20485;-69
2022/08/04 08:33:57;;;;;;;8.40;3.72;;;26.80;99.90;;;;;;5020726;28;20060;-68
2022/08/04 08:36:26;;;;;;;12.27;4.00;;;26.90;99.90;;;;;;5007229;28;20119;-69
2022/08/04 08:38:59;;;;;;;11.73;4.10;;;27.20;99.90;;;;;;5012374;28;20048;-69
2022/08/04 08:41:36;;;;;;;10.98;3.90;;;27.30;99.90;;;;;;5012284;28;20510;-70
2022/08/04 08:45:05;;;;;;;13.73;4.40;;;27.40;99.90;;;;;;4995628;28;20062;-71
2022/08/04 08:48:05;;;;;;;11.73;4.40;;;27.50;99.90;;;;;;4992281;28;21292;-70
2022/08/04 08:50:50;;;;;;;14.90;4.38;;;27.40;99.90;;;;;;5022238;28;20057;-70
2022/08/04 08:53:48;;;;;;;12.05;4.15;;;27.50;99.90;;;;;;5012306;28;20532;-70
2022/08/04 08:56:41;;;;;;;13.07;4.03;;;27.70;99.90;;;;;;5008398;28;20492;-69
2022/08/04 08:59:12;;;;;;;8.50;3.70;;;27.80;99.90;;;;;;5026038;28;20337;-69
2022/08/04 09:01:44;;;;;;;8.23;4.05;;;28.00;99.90;;;;;;5011971;28;20218;-71
2022/08/04 09:04:40;;;;;;;12.55;3.88;;;28.10;99.90;;;;;;5011961;28;20085;-69
2022/08/04 09:07:33;;;;;;;10.77;4.05;;;28.00;99.90;;;;;;5013655;28;20050;-69
2022/08/04 09:10:14;;;;;;;11.52;3.33;;;28.00;99.90;;;;;;5019907;28;20464;-69
2022/08/04 09:12:51;;;;;;;10.63;4.45;;;28.00;99.90;;;;;;5011737;28;20046;-69
2022/08/04 09:15:35;;;;;;;10.73;3.58;;;28.20;99.90;;;;;;5011675;28;20488;-69
2022/08/04 09:18:12;;;;;;;13.52;3.63;;;28.30;99.90;;;;;;5017138;28;20055;-69
2022/08/04 09:20:56;;;;;;;8.98;3.38;;;28.60;99.90;;;;;;5013028;28;20439;-68
2022/08/04 09:23:32;;;;;;;7.70;3.50;;;28.80;99.90;;;;;;5012575;28;20046;-69
2022/08/04 09:26:17;;;;;;;11.93;3.40;;;29.00;99.90;;;;;;4994664;28;20068;-69
2022/08/04 09:29:11;;;;;;;7.75;3.22;;;29.30;99.90;;;;;;4998790;28;20085;-69
2022/08/04 09:32:16;;;;;;;10.05;3.50;;;29.50;99.90;;;;;;5012428;28;20050;-70
2022/08/04 09:35:00;;;;;;;7.50;2.85;;;29.50;99.90;;;;;;5025459;28;20049;-69
2022/08/04 09:37:37;;;;;;;9.05;3.70;;;29.30;99.90;;;;;;5011389;28;20053;-69
2022/08/04 09:40:26;;;;;;;6.15;3.10;;;29.30;99.90;;;;;;5017850;28;20050;-69
2022/08/04 09:42:52;;;;;;;9.25;2.88;;;29.40;98.10;;;;;;5030087;28;20405;-70
2022/08/04 09:45:31;;;;;;;8.95;3.22;;;29.70;99.90;;;;;;5012052;28;20050;-69
2022/08/04 09:48:04;;;;;;;6.32;2.60;;;29.50;98.60;;;;;;5010798;28;20503;-69
2022/08/04 09:50:34;;;;;;;7.00;2.85;;;29.70;98.30;;;;;;5022074;28;20095;-69
2022/08/04 09:53:41;;;;;;;8.93;3.30;;;30.00;97.90;;;;;;5012670;28;20515;-69
2022/08/04 09:56:25;;;;;;;7.72;3.00;;;29.80;96.00;;;;;;5010634;28;20484;-69
2022/08/04 09:59:29;;;;;;;9.57;3.22;;;29.90;97.70;;;;;;5010868;28;20068;-70
2022/08/04 10:02:03;;;;;;;11.98;3.70;;;29.90;96.50;;;;;;5010317;28;20058;-70
2022/08/04 10:04:31;;;;;;;8.20;3.20;;;29.80;97.10;;;;;;5015940;28;20062;-69
2022/08/04 10:07:10;;;;;;;9.77;3.13;;;30.10;97.50;;;;;;5010588;28;20049;-69
2022/08/04 10:10:01;;;;;;;9.95;3.30;;;30.40;97.60;;;;;;4995527;28;20042;-69
2022/08/04 10:12:37;;;;;;;7.05;3.00;;;30.40;95.90;;;;;;4996482;28;20049;-69
2022/08/04 10:15:35;;;;;;;8.18;3.08;;;30.30;96.30;;;;;;5010476;28;20499;-69
2022/08/04 10:18:09;;;;;;;10.27;3.35;;;30.40;95.90;;;;;;5012260;28;20054;-69
2022/08/04 10:20:44;;;;;;;10.82;3.40;;;30.50;93.90;;;;;;5010722;28;20397;-69
2022/08/04 10:23:26;;;;;;;9.02;2.95;;;30.60;91.80;;;;;;5010873;28;20046;-69
2022/08/04 10:26:19;;;;;;;10.25;3.20;;;30.90;92.60;;;;;;5013072;28;20388;-71
2022/08/04 10:29:06;;;;;;;9.63;3.55;;;31.10;93.00;;;;;;5040174;28;20038;-68
2022/08/04 10:31:35;;;;;;;8.77;3.72;;;31.00;89.90;;;;;;5006418;28;20140;-69
2022/08/04 10:34:24;;;;;;;9.35;4.10;;;31.10;91.60;;;;;;4990908;28;20042;-70
2022/08/04 10:37:11;;;;;;;7.13;4.03;;;30.60;92.00;;;;;;5009291;28;20049;-70
2022/08/04 10:43:14;;;;;;;10.10;4.88;;;30.50;93.90;;;;;;5000347;28;21244;-70
2022/08/04 10:45:45;;;;;;;11.65;5.35;;;30.70;95.00;;;;;;5010700;28;20617;-71
2022/08/04 10:48:19;;;;;;;7.70;4.95;;;30.70;94.80;;;;;;5020883;28;20948;-69
2022/08/04 10:51:12;;;;;;;8.80;4.88;;;30.70;95.40;;;;;;5002166;28;20128;-70
2022/08/04 10:53:41;;;;;;;8.90;5.00;;;30.70;95.60;;;;;;5013339;28;20049;-71
2022/08/04 10:56:18;;;;;;;9.20;5.10;;;30.80;95.50;;;;;;4997999;28;20488;-72
2022/08/04 10:58:55;;;;;;;11.45;5.45;;;30.80;95.50;;;;;;5043575;28;20449;-71
2022/08/04 11:01:31;;;;;;;8.52;4.70;;;30.50;94.30;;;;;;5023638;28;20050;-71
2022/08/04 11:04:04;;;;;;;7.55;4.93;;;30.40;95.40;;;;;;5014189;28;20504;-72
2022/08/04 11:06:32;;;;;;;7.03;4.15;;;30.50;94.40;;;;;;5012589;28;20050;-73
2022/08/04 11:09:02;;;;;;;9.65;5.07;;;30.60;93.90;;;;;;5016190;28;20046;-73
2022/08/04 11:11:59;;;;;;;16.90;4.40;;;30.50;94.30;;;;;;5016224;28;20077;-71
2022/08/04 11:14:36;;;;;;;10.00;3.65;;;30.90;93.20;;;;;;4990739;28;20063;-68
2022/08/04 11:17:21;;;;;;;9.43;4.57;;;30.80;91.10;;;;;;5000594;28;20496;-69
2022/08/04 11:20:00;;;;;;;10.55;4.18;;;30.40;91.60;;;;;;4996760;28;20046;-71
2022/08/04 11:22:28;;;;;;;8.02;4.30;;;30.50;92.10;;;;;;5011207;28;20049;-69
2022/08/04 11:25:25;;;;;;;10.10;4.30;;;30.70;91.80;;;;;;4996602;28;20061;-70
2022/08/04 11:28:12;;;;;;;9.65;3.95;;;30.50;90.90;;;;;;5011472;28;20129;-70
2022/08/04 11:30:44;;;;;;;7.50;4.03;;;30.40;92.50;;;;;;5014338;28;20077;-70
2022/08/04 11:33:33;;;;;;;6.55;3.00;;;30.30;92.20;;;;;;4995005;28;20479;-69
2022/08/04 11:36:21;;;;;;;7.75;3.72;;;30.30;91.90;;;;;;4996803;28;20050;-69
2022/08/04 11:39:07;;;;;;;8.70;3.20;;;30.50;91.80;;;;;;5015380;28;20039;-70
2022/08/04 11:42:05;;;;;;;9.13;3.05;;;30.50;91.20;;;;;;5004843;28;20128;-69
2022/08/04 11:45:00;;;;;;;6.15;2.90;;;30.60;90.00;;;;;;4995553;28;20065;-69
2022/08/04 11:47:40;;;;;;;8.35;2.80;;;30.20;88.90;;;;;;5013305;28;20183;-68
2022/08/04 11:50:21;;;;;;;7.63;2.70;;;30.10;90.10;;;;;;5017168;28;20077;-69
2022/08/04 11:52:48;;;;;;;6.20;2.45;;;30.20;90.00;;;;;;5021094;28;20077;-69
2022/08/04 11:55:20;;;;;;;5.03;2.40;;;30.00;90.20;;;;;;5012916;28;20050;-69
2022/08/04 11:57:47;;;;;;;6.28;2.55;;;30.20;90.00;;;;;;4996890;28;20045;-70
2022/08/04 12:00:16;;;;;;;7.10;2.47;;;30.20;89.90;;;;;;5018958;28;20037;-68
2022/08/04 12:02:51;;;;;;;5.97;2.20;;;30.10;88.90;;;;;;5014700;28;20053;-68
2022/08/04 12:06:02;;;;;;;9.93;2.58;;;29.60;89.90;;;;;;5012411;28;20042;-68
2022/08/04 12:08:58;;;;;;;4.85;2.63;;;29.20;90.60;;;;;;5012696;28;20050;-70
2022/08/04 12:11:59;;;;;;;7.78;2.50;;;29.30;90.70;;;;;;5001184;28;20068;-69
2022/08/04 12:14:30;;;;;;;6.53;2.30;;;29.20;91.20;;;;;;4996440;28;20050;-69
2022/08/04 12:17:03;;;;;;;8.70;2.60;;;28.90;91.60;;;;;;5012651;28;20061;-69
2022/08/04 12:19:32;;;;;;;7.95;2.47;;;28.80;92.20;;;;;;5012473;28;20085;-69
2022/08/04 12:22:02;;;;;;;6.43;2.72;;;28.80;92.50;;;;;;4996371;28;20382;-69
2022/08/04 12:24:42;;;;;;;6.50;2.72;;;28.80;93.00;;;;;;5000212;28;20053;-71
2022/08/04 12:27:15;;;;;;;6.65;2.53;;;28.70;93.30;;;;;;5013827;28;20060;-69
2022/08/04 12:29:41;;;;;;;6.07;3.00;;;28.80;93.60;;;;;;5012348;28;20139;-69
2022/08/04 12:32:37;;;;;;;10.40;3.40;;;28.60;94.20;;;;;;5012473;28;20497;-68
2022/08/04 12:35:21;;;;;;;5.75;2.80;;;28.70;95.60;;;;;;5011993;28;20046;-69
2022/08/04 12:37:55;;;;;;;9.13;2.72;;;28.60;95.90;;;;;;5012645;28;20060;-65
2022/08/04 12:40:39;;;;;;;4.40;1.80;;;28.40;96.50;;;;;;5007143;28;20042;-66
2022/08/04 12:43:16;;;;;;;5.80;2.35;;;28.30;96.90;;;;;;5012122;28;20428;-66
2022/08/04 12:45:54;;;;;;;8.60;2.33;;;28.30;97.20;;;;;;5015578;28;20451;-66
2022/08/04 12:48:22;;;;;;;5.00;2.00;;;28.30;96.50;;;;;;5012129;28;20056;-66
2022/08/04 12:50:55;;;;;;;5.20;1.90;;;28.30;96.30;;;;;;5012337;28;20088;-68
2022/08/04 12:53:28;;;;;;;4.28;1.73;;;28.30;96.70;;;;;;5012252;28;20072;-66
2022/08/04 12:55:56;;;;;;;4.93;1.95;;;28.10;97.10;;;;;;5011779;28;20111;-66
2022/08/04 12:58:27;;;;;;;3.25;1.70;;;27.90;97.60;;;;;;4995820;28;20050;-66
2022/08/04 13:00:55;;;;;;;;;;;27.60;97.70;;;;;;5045032;28;20053;-66
2022/08/04 13:03:27;;;;;;;8.10;2.10;;;27.30;98.60;;;;;;5044829;28;20004;-67
2022/08/04 13:05:57;;;;;;;4.70;1.73;;;27.10;98.30;;;;;;5011483;28;20054;-67
2022/08/04 13:08:23;;;;;;;2.83;1.60;;;26.80;98.40;;;;;;5011054;28;20570;-65
2022/08/04 13:10:56;;;;;;;3.92;2.10;;;26.70;98.20;;;;;;5011962;28;20054;-66
2022/08/04 13:13:25;;;;;;;11.43;2.83;;;26.50;98.90;;;;;;4996677;28;20062;-68
2022/08/04 13:16:02;;;;;;;9.13;2.55;;;26.10;99.90;;;;;;5011937;28;20488;-67
2022/08/04 13:18:32;;;;;;;3.15;1.90;;;25.80;99.90;;;;;;5011657;28;20056;-68
2022/08/04 13:21:28;;;;;;;4.85;1.88;;;25.50;99.90;;;;;;5011636;28;20050;-66
2022/08/04 13:24:03;;;;;;;3.38;1.83;;;25.20;99.90;;;;;;5006901;28;20144;-68
2022/08/04 13:26:30;;;;;;;5.45;1.75;;;25.30;99.90;;;;;;5010925;28;20053;-71
2022/08/04 13:29:00;;;;;;;4.35;1.80;;;25.40;99.90;;;;;;5012132;28;20049;-68
2022/08/04 13:31:28;;;;;;;2.70;1.90;;;25.60;99.90;;;;;;5011651;28;20545;-67
2022/08/04 13:34:06;;;;;;;2.90;1.75;;;25.60;99.90;;;;;;4991857;28;20135;-67
2022/08/04 13:36:34;;;;;;;3.95;1.70;;;25.90;99.90;;;;;;5007605;28;20050;-67